sensor_id;sensor_type;location;lat;lon;timestamp;P1;durP1;ratioP1;P2;durP2;ratioP2
3777;SDS011;1904;50.076;8.660;2022-08-19T00:00:44;20.37;;;13.10;;
3777;SDS011;1904;50.076;8.660;2022-08-19T00:03:14;16.73;;;12.50;;
3777;SDS011;1904;50.076;8.660;2022-08-19T00:05:56;20.37;;;13.13;;
3777;SDS011;1904;50.076;8.660;2022-08-19T00:08:22;21.10;;;14.40;;
3777;SDS011;1904;50.076;8.660;2022-08-19T00:11:02;18.43;;;13.10;;
3777;SDS011;1904;50.076;8.660;2022-08-19T00:13:44;17.70;;;12.57;;
3777;SDS011;1904;50.076;8.660;2022-08-19T00:16:14;18.70;;;13.10;;
3777;SDS011;1904;50.076;8.660;2022-08-19T00:18:44;19.93;;;14.20;;
3777;SDS011;1904;50.076;8.660;2022-08-19T00:21:14;21.50;;;13.23;;
3777;SDS011;1904;50.076;8.660;2022-08-19T00:23:44;19.20;;;13.70;;
3777;SDS011;1904;50.076;8.660;2022-08-19T00:29:10;19.33;;;13.60;;
3777;SDS011;1904;50.076;8.660;2022-08-19T00:31:37;19.30;;;13.00;;
3777;SDS011;1904;50.076;8.660;2022-08-19T00:34:14;25.07;;;13.83;;
3777;SDS011;1904;50.076;8.660;2022-08-19T00:36:45;19.80;;;13.90;;
3777;SDS011;1904;50.076;8.660;2022-08-19T00:39:12;18.87;;;13.07;;
3777;SDS011;1904;50.076;8.660;2022-08-19T00:41:39;21.73;;;14.63;;
3777;SDS011;1904;50.076;8.660;2022-08-19T00:44:16;19.20;;;13.23;;
3777;SDS011;1904;50.076;8.660;2022-08-19T00:46:45;22.70;;;14.10;;
3777;SDS011;1904;50.076;8.660;2022-08-19T00:49:14;17.87;;;13.23;;
3777;SDS011;1904;50.076;8.660;2022-08-19T00:51:55;22.77;;;14.07;;
3777;SDS011;1904;50.076;8.660;2022-08-19T00:54:26;22.93;;;14.33;;
3777;SDS011;1904;50.076;8.660;2022-08-19T00:57:09;19.87;;;12.97;;
3777;SDS011;1904;50.076;8.660;2022-08-19T00:59:45;20.57;;;14.13;;
3777;SDS011;1904;50.076;8.660;2022-08-19T01:02:26;16.90;;;12.70;;
3777;SDS011;1904;50.076;8.660;2022-08-19T01:07:44;17.53;;;12.93;;
3777;SDS011;1904;50.076;8.660;2022-08-19T01:10:16;18.30;;;13.20;;
3777;SDS011;1904;50.076;8.660;2022-08-19T01:12:57;19.77;;;13.20;;
3777;SDS011;1904;50.076;8.660;2022-08-19T01:18:15;23.07;;;12.03;;
3777;SDS011;1904;50.076;8.660;2022-08-19T01:20:44;20.83;;;13.00;;
3777;SDS011;1904;50.076;8.660;2022-08-19T01:26:16;16.50;;;11.90;;
3777;SDS011;1904;50.076;8.660;2022-08-19T01:28:53;16.33;;;11.70;;
3777;SDS011;1904;50.076;8.660;2022-08-19T01:31:21;21.57;;;11.27;;
3777;SDS011;1904;50.076;8.660;2022-08-19T01:33:49;16.60;;;11.10;;
3777;SDS011;1904;50.076;8.660;2022-08-19T01:39:16;31.37;;;12.10;;
3777;SDS011;1904;50.076;8.660;2022-08-19T01:41:47;16.03;;;10.23;;
3777;SDS011;1904;50.076;8.660;2022-08-19T01:44:15;13.80;;;11.00;;
3777;SDS011;1904;50.076;8.660;2022-08-19T01:46:45;21.00;;;11.80;;
3777;SDS011;1904;50.076;8.660;2022-08-19T01:49:15;17.07;;;11.53;;
3777;SDS011;1904;50.076;8.660;2022-08-19T01:51:44;17.77;;;11.60;;
3777;SDS011;1904;50.076;8.660;2022-08-19T01:54:15;18.20;;;11.60;;
3777;SDS011;1904;50.076;8.660;2022-08-19T01:56:44;15.43;;;10.43;;
3777;SDS011;1904;50.076;8.660;2022-08-19T01:59:16;14.47;;;10.83;;
3777;SDS011;1904;50.076;8.660;2022-08-19T02:01:50;15.87;;;11.40;;
3777;SDS011;1904;50.076;8.660;2022-08-19T02:04:20;21.10;;;11.90;;
3777;SDS011;1904;50.076;8.660;2022-08-19T02:06:50;21.37;;;11.40;;
3777;SDS011;1904;50.076;8.660;2022-08-19T02:09:16;16.63;;;10.77;;
3777;SDS011;1904;50.076;8.660;2022-08-19T02:11:56;18.80;;;12.03;;
3777;SDS011;1904;50.076;8.660;2022-08-19T02:14:26;13.17;;;10.30;;
3777;SDS011;1904;50.076;8.660;2022-08-19T02:16:56;13.97;;;10.47;;
3777;SDS011;1904;50.076;8.660;2022-08-19T02:19:32;16.53;;;11.17;;
3777;SDS011;1904;50.076;8.660;2022-08-19T02:22:08;17.47;;;10.37;;
3777;SDS011;1904;50.076;8.660;2022-08-19T02:24:38;18.20;;;11.13;;
3777;SDS011;1904;50.076;8.660;2022-08-19T02:27:04;16.87;;;10.30;;
3777;SDS011;1904;50.076;8.660;2022-08-19T02:29:30;14.63;;;10.40;;
3777;SDS011;1904;50.076;8.660;2022-08-19T02:31:56;13.83;;;10.13;;
3777;SDS011;1904;50.076;8.660;2022-08-19T02:34:23;16.30;;;11.13;;
3777;SDS011;1904;50.076;8.660;2022-08-19T02:36:50;13.53;;;10.00;;
3777;SDS011;1904;50.076;8.660;2022-08-19T02:45:33;15.07;;;9.80;;
3777;SDS011;1904;50.076;8.660;2022-08-19T02:48:00;14.50;;;9.50;;
3777;SDS011;1904;50.076;8.660;2022-08-19T02:50:25;14.37;;;9.73;;
3777;SDS011;1904;50.076;8.660;2022-08-19T02:53:08;13.03;;;9.23;;
3777;SDS011;1904;50.076;8.660;2022-08-19T02:58:32;13.90;;;9.40;;
3777;SDS011;1904;50.076;8.660;2022-08-19T03:01:02;16.33;;;10.70;;
3777;SDS011;1904;50.076;8.660;2022-08-19T03:03:32;14.20;;;9.00;;
3777;SDS011;1904;50.076;8.660;2022-08-19T03:08:45;15.20;;;10.03;;
3777;SDS011;1904;50.076;8.660;2022-08-19T03:14:14;16.37;;;10.73;;
3777;SDS011;1904;50.076;8.660;2022-08-19T03:16:51;17.53;;;10.67;;
3777;SDS011;1904;50.076;8.660;2022-08-19T03:19:32;13.50;;;10.33;;
3777;SDS011;1904;50.076;8.660;2022-08-19T03:22:14;17.80;;;10.93;;
3777;SDS011;1904;50.076;8.660;2022-08-19T03:24:40;12.37;;;9.50;;
3777;SDS011;1904;50.076;8.660;2022-08-19T03:27:06;13.00;;;9.80;;
3777;SDS011;1904;50.076;8.660;2022-08-19T03:29:32;15.80;;;10.53;;
3777;SDS011;1904;50.076;8.660;2022-08-19T03:31:59;18.43;;;10.80;;
3777;SDS011;1904;50.076;8.660;2022-08-19T03:34:28;14.30;;;10.03;;
3777;SDS011;1904;50.076;8.660;2022-08-19T03:36:56;16.80;;;9.87;;
3777;SDS011;1904;50.076;8.660;2022-08-19T03:45:31;19.77;;;9.90;;
3777;SDS011;1904;50.076;8.660;2022-08-19T03:48:08;18.80;;;10.43;;
3777;SDS011;1904;50.076;8.660;2022-08-19T03:53:40;13.70;;;10.10;;
3777;SDS011;1904;50.076;8.660;2022-08-19T03:56:14;19.57;;;10.27;;
3777;SDS011;1904;50.076;8.660;2022-08-19T04:01:51;16.83;;;10.40;;
3777;SDS011;1904;50.076;8.660;2022-08-19T04:04:26;12.70;;;9.53;;
3777;SDS011;1904;50.076;8.660;2022-08-19T04:06:56;20.33;;;10.70;;
3777;SDS011;1904;50.076;8.660;2022-08-19T04:09:22;14.50;;;10.87;;
3777;SDS011;1904;50.076;8.660;2022-08-19T04:11:49;18.00;;;10.57;;
3777;SDS011;1904;50.076;8.660;2022-08-19T04:14:20;15.90;;;10.70;;
3777;SDS011;1904;50.076;8.660;2022-08-19T04:16:51;17.93;;;9.73;;
3777;SDS011;1904;50.076;8.660;2022-08-19T04:19:18;13.57;;;9.80;;
3777;SDS011;1904;50.076;8.660;2022-08-19T04:21:45;13.57;;;9.70;;
3777;SDS011;1904;50.076;8.660;2022-08-19T04:24:12;15.63;;;9.90;;
3777;SDS011;1904;50.076;8.660;2022-08-19T04:26:38;14.07;;;9.93;;
3777;SDS011;1904;50.076;8.660;2022-08-19T04:29:05;13.80;;;9.27;;
3777;SDS011;1904;50.076;8.660;2022-08-19T04:31:39;13.53;;;9.80;;
3777;SDS011;1904;50.076;8.660;2022-08-19T04:34:09;21.77;;;9.90;;
3777;SDS011;1904;50.076;8.660;2022-08-19T04:36:37;14.67;;;10.10;;
3777;SDS011;1904;50.076;8.660;2022-08-19T04:39:09;15.67;;;10.40;;
3777;SDS011;1904;50.076;8.660;2022-08-19T04:41:38;14.67;;;9.77;;
3777;SDS011;1904;50.076;8.660;2022-08-19T04:44:22;14.87;;;9.93;;
3777;SDS011;1904;50.076;8.660;2022-08-19T04:46:50;22.80;;;10.43;;
3777;SDS011;1904;50.076;8.660;2022-08-19T04:49:18;16.23;;;9.70;;
3777;SDS011;1904;50.076;8.660;2022-08-19T04:51:46;13.97;;;9.30;;
3777;SDS011;1904;50.076;8.660;2022-08-19T04:54:14;13.57;;;9.17;;
3777;SDS011;1904;50.076;8.660;2022-08-19T04:56:41;12.97;;;9.63;;
3777;SDS011;1904;50.076;8.660;2022-08-19T04:59:07;15.43;;;9.93;;
3777;SDS011;1904;50.076;8.660;2022-08-19T05:01:44;19.30;;;9.80;;
3777;SDS011;1904;50.076;8.660;2022-08-19T05:04:14;23.50;;;9.53;;
3777;SDS011;1904;50.076;8.660;2022-08-19T05:06:45;17.13;;;9.37;;
3777;SDS011;1904;50.076;8.660;2022-08-19T05:09:15;13.00;;;9.63;;
3777;SDS011;1904;50.076;8.660;2022-08-19T05:15:03;17.17;;;9.77;;
3777;SDS011;1904;50.076;8.660;2022-08-19T05:17:38;13.40;;;8.07;;
3777;SDS011;1904;50.076;8.660;2022-08-19T05:23:46;17.13;;;8.80;;
3777;SDS011;1904;50.076;8.660;2022-08-19T05:26:20;20.37;;;8.63;;
3777;SDS011;1904;50.076;8.660;2022-08-19T05:28:50;13.33;;;8.47;;
3777;SDS011;1904;50.076;8.660;2022-08-19T05:31:38;15.50;;;9.00;;
3777;SDS011;1904;50.076;8.660;2022-08-19T05:34:09;13.07;;;7.70;;
3777;SDS011;1904;50.076;8.660;2022-08-19T05:36:40;9.20;;;7.67;;
3777;SDS011;1904;50.076;8.660;2022-08-19T05:42:10;13.70;;;7.80;;
3777;SDS011;1904;50.076;8.660;2022-08-19T05:44:39;9.93;;;7.60;;
3777;SDS011;1904;50.076;8.660;2022-08-19T05:47:15;11.23;;;7.63;;
3777;SDS011;1904;50.076;8.660;2022-08-19T05:49:42;10.47;;;7.40;;
3777;SDS011;1904;50.076;8.660;2022-08-19T05:52:09;17.10;;;8.50;;
3777;SDS011;1904;50.076;8.660;2022-08-19T05:54:39;11.30;;;8.07;;
3777;SDS011;1904;50.076;8.660;2022-08-19T06:00:22;9.73;;;7.57;;
3777;SDS011;1904;50.076;8.660;2022-08-19T06:02:48;7.83;;;6.83;;
3777;SDS011;1904;50.076;8.660;2022-08-19T06:05:14;18.30;;;7.67;;
3777;SDS011;1904;50.076;8.660;2022-08-19T06:07:40;18.83;;;7.20;;
3777;SDS011;1904;50.076;8.660;2022-08-19T06:10:07;10.20;;;7.10;;
3777;SDS011;1904;50.076;8.660;2022-08-19T06:12:35;7.13;;;6.30;;
3777;SDS011;1904;50.076;8.660;2022-08-19T06:15:03;9.23;;;6.23;;
3777;SDS011;1904;50.076;8.660;2022-08-19T06:17:32;9.23;;;6.30;;
3777;SDS011;1904;50.076;8.660;2022-08-19T06:20:00;11.63;;;6.27;;
3777;SDS011;1904;50.076;8.660;2022-08-19T06:22:36;8.93;;;5.93;;
3777;SDS011;1904;50.076;8.660;2022-08-19T06:25:03;9.47;;;5.40;;
3777;SDS011;1904;50.076;8.660;2022-08-19T06:27:29;9.77;;;7.00;;
3777;SDS011;1904;50.076;8.660;2022-08-19T06:29:56;12.60;;;6.20;;
3777;SDS011;1904;50.076;8.660;2022-08-19T06:32:22;8.63;;;6.03;;
3777;SDS011;1904;50.076;8.660;2022-08-19T06:34:48;10.13;;;6.23;;
3777;SDS011;1904;50.076;8.660;2022-08-19T06:37:14;11.30;;;6.57;;
3777;SDS011;1904;50.076;8.660;2022-08-19T06:39:41;7.30;;;5.93;;
3777;SDS011;1904;50.076;8.660;2022-08-19T06:42:08;12.60;;;5.80;;
3777;SDS011;1904;50.076;8.660;2022-08-19T06:54:01;9.90;;;5.40;;
3777;SDS011;1904;50.076;8.660;2022-08-19T06:56:28;12.37;;;5.53;;
3777;SDS011;1904;50.076;8.660;2022-08-19T06:59:11;6.63;;;5.40;;
3777;SDS011;1904;50.076;8.660;2022-08-19T07:01:51;8.30;;;4.90;;
3777;SDS011;1904;50.076;8.660;2022-08-19T07:04:28;5.67;;;4.90;;
3777;SDS011;1904;50.076;8.660;2022-08-19T07:07:10;6.93;;;5.57;;
3777;SDS011;1904;50.076;8.660;2022-08-19T07:09:44;16.47;;;5.23;;
3777;SDS011;1904;50.076;8.660;2022-08-19T07:12:14;6.23;;;4.70;;
3777;SDS011;1904;50.076;8.660;2022-08-19T07:17:52;6.27;;;4.43;;
3777;SDS011;1904;50.076;8.660;2022-08-19T07:20:17;8.27;;;5.97;;
3777;SDS011;1904;50.076;8.660;2022-08-19T07:22:43;9.73;;;5.57;;
3777;SDS011;1904;50.076;8.660;2022-08-19T07:25:10;12.73;;;5.40;;
3777;SDS011;1904;50.076;8.660;2022-08-19T07:27:38;8.57;;;5.67;;
3777;SDS011;1904;50.076;8.660;2022-08-19T07:30:04;9.80;;;6.00;;
3777;SDS011;1904;50.076;8.660;2022-08-19T07:32:30;7.27;;;5.40;;
3777;SDS011;1904;50.076;8.660;2022-08-19T07:34:55;9.40;;;5.20;;
3777;SDS011;1904;50.076;8.660;2022-08-19T07:37:21;8.73;;;5.73;;
3777;SDS011;1904;50.076;8.660;2022-08-19T07:39:47;7.70;;;5.70;;
3777;SDS011;1904;50.076;8.660;2022-08-19T07:42:13;11.00;;;6.33;;
3777;SDS011;1904;50.076;8.660;2022-08-19T07:44:39;10.73;;;6.40;;
3777;SDS011;1904;50.076;8.660;2022-08-19T07:47:05;9.27;;;5.97;;
3777;SDS011;1904;50.076;8.660;2022-08-19T07:49:31;7.97;;;5.47;;
3777;SDS011;1904;50.076;8.660;2022-08-19T07:52:01;10.70;;;5.40;;
3777;SDS011;1904;50.076;8.660;2022-08-19T07:54:32;7.37;;;5.40;;
3777;SDS011;1904;50.076;8.660;2022-08-19T07:57:00;12.53;;;6.10;;
3777;SDS011;1904;50.076;8.660;2022-08-19T07:59:27;8.70;;;6.10;;
3777;SDS011;1904;50.076;8.660;2022-08-19T08:01:54;7.80;;;6.50;;
3777;SDS011;1904;50.076;8.660;2022-08-19T08:04:20;6.50;;;5.40;;
3777;SDS011;1904;50.076;8.660;2022-08-19T08:07:05;5.60;;;5.00;;
3777;SDS011;1904;50.076;8.660;2022-08-19T08:09:50;11.90;;;5.23;;
3777;SDS011;1904;50.076;8.660;2022-08-19T08:12:24;10.63;;;5.60;;
3777;SDS011;1904;50.076;8.660;2022-08-19T08:14:59;7.70;;;4.60;;
3777;SDS011;1904;50.076;8.660;2022-08-19T08:17:29;12.20;;;4.70;;
3777;SDS011;1904;50.076;8.660;2022-08-19T08:19:57;5.60;;;4.30;;
3777;SDS011;1904;50.076;8.660;2022-08-19T08:22:23;5.50;;;4.27;;
3777;SDS011;1904;50.076;8.660;2022-08-19T08:25:12;6.30;;;4.77;;
3777;SDS011;1904;50.076;8.660;2022-08-19T08:27:41;5.00;;;4.13;;
3777;SDS011;1904;50.076;8.660;2022-08-19T08:30:10;4.63;;;4.23;;
3777;SDS011;1904;50.076;8.660;2022-08-19T08:32:39;5.70;;;4.93;;
3777;SDS011;1904;50.076;8.660;2022-08-19T08:35:06;8.70;;;5.13;;
3777;SDS011;1904;50.076;8.660;2022-08-19T08:37:33;7.90;;;4.83;;
3777;SDS011;1904;50.076;8.660;2022-08-19T08:40:02;4.80;;;4.00;;
3777;SDS011;1904;50.076;8.660;2022-08-19T08:42:51;9.97;;;4.67;;
3777;SDS011;1904;50.076;8.660;2022-08-19T08:45:27;10.00;;;4.50;;
3777;SDS011;1904;50.076;8.660;2022-08-19T08:47:55;5.57;;;4.20;;
3777;SDS011;1904;50.076;8.660;2022-08-19T08:50:33;4.60;;;4.00;;
3777;SDS011;1904;50.076;8.660;2022-08-19T08:53:04;4.93;;;4.43;;
3777;SDS011;1904;50.076;8.660;2022-08-19T08:55:33;6.67;;;4.80;;
3777;SDS011;1904;50.076;8.660;2022-08-19T08:58:06;8.90;;;5.10;;
3777;SDS011;1904;50.076;8.660;2022-08-19T09:00:46;5.50;;;3.63;;
3777;SDS011;1904;50.076;8.660;2022-08-19T09:03:16;4.70;;;4.30;;
3777;SDS011;1904;50.076;8.660;2022-08-19T09:10:54;9.50;;;4.93;;
3777;SDS011;1904;50.076;8.660;2022-08-19T09:16:10;5.27;;;4.43;;
3777;SDS011;1904;50.076;8.660;2022-08-19T09:21:08;6.40;;;4.60;;
3777;SDS011;1904;50.076;8.660;2022-08-19T09:23:35;8.00;;;4.40;;
3777;SDS011;1904;50.076;8.660;2022-08-19T09:26:05;8.83;;;4.30;;
3777;SDS011;1904;50.076;8.660;2022-08-19T09:28:38;10.20;;;4.87;;
3777;SDS011;1904;50.076;8.660;2022-08-19T09:31:06;8.97;;;4.40;;
3777;SDS011;1904;50.076;8.660;2022-08-19T09:33:31;4.43;;;3.73;;
3777;SDS011;1904;50.076;8.660;2022-08-19T09:36:01;6.00;;;4.13;;
3777;SDS011;1904;50.076;8.660;2022-08-19T09:38:32;6.40;;;4.17;;
3777;SDS011;1904;50.076;8.660;2022-08-19T09:41:02;9.33;;;3.40;;
3777;SDS011;1904;50.076;8.660;2022-08-19T09:43:39;5.40;;;4.30;;
3777;SDS011;1904;50.076;8.660;2022-08-19T09:48:53;4.03;;;3.67;;
3777;SDS011;1904;50.076;8.660;2022-08-19T09:51:27;6.60;;;4.07;;
3777;SDS011;1904;50.076;8.660;2022-08-19T09:53:58;4.07;;;3.77;;
3777;SDS011;1904;50.076;8.660;2022-08-19T09:56:27;6.30;;;4.17;;
3777;SDS011;1904;50.076;8.660;2022-08-19T09:58:53;10.13;;;4.70;;
3777;SDS011;1904;50.076;8.660;2022-08-19T10:01:22;4.93;;;4.50;;
3777;SDS011;1904;50.076;8.660;2022-08-19T10:03:50;4.63;;;4.23;;
3777;SDS011;1904;50.076;8.660;2022-08-19T10:06:20;9.93;;;4.30;;
3777;SDS011;1904;50.076;8.660;2022-08-19T10:08:51;5.20;;;4.77;;
3777;SDS011;1904;50.076;8.660;2022-08-19T10:11:18;5.20;;;4.60;;
3777;SDS011;1904;50.076;8.660;2022-08-19T10:13:45;7.13;;;4.67;;
3777;SDS011;1904;50.076;8.660;2022-08-19T10:16:12;5.47;;;4.80;;
3777;SDS011;1904;50.076;8.660;2022-08-19T10:18:56;9.27;;;4.30;;
3777;SDS011;1904;50.076;8.660;2022-08-19T10:21:23;12.00;;;5.23;;
3777;SDS011;1904;50.076;8.660;2022-08-19T10:24:09;8.20;;;4.90;;
3777;SDS011;1904;50.076;8.660;2022-08-19T10:26:44;8.70;;;4.80;;
3777;SDS011;1904;50.076;8.660;2022-08-19T10:35:14;4.83;;;4.43;;
3777;SDS011;1904;50.076;8.660;2022-08-19T10:37:42;7.03;;;4.70;;
3777;SDS011;1904;50.076;8.660;2022-08-19T10:40:14;13.93;;;4.73;;
3777;SDS011;1904;50.076;8.660;2022-08-19T10:42:56;5.23;;;4.73;;
3777;SDS011;1904;50.076;8.660;2022-08-19T10:45:26;6.27;;;4.90;;
3777;SDS011;1904;50.076;8.660;2022-08-19T10:47:56;5.13;;;4.63;;
3777;SDS011;1904;50.076;8.660;2022-08-19T10:50:22;5.10;;;4.70;;
3777;SDS011;1904;50.076;8.660;2022-08-19T10:53:07;12.83;;;5.40;;
3777;SDS011;1904;50.076;8.660;2022-08-19T10:55:33;8.10;;;5.00;;
3777;SDS011;1904;50.076;8.660;2022-08-19T10:58:18;6.10;;;5.10;;
3777;SDS011;1904;50.076;8.660;2022-08-19T11:00:54;6.30;;;4.90;;
3777;SDS011;1904;50.076;8.660;2022-08-19T11:03:21;6.83;;;6.23;;
3777;SDS011;1904;50.076;8.660;2022-08-19T11:06:05;8.43;;;5.97;;
3777;SDS011;1904;50.076;8.660;2022-08-19T11:08:33;7.77;;;6.80;;
3777;SDS011;1904;50.076;8.660;2022-08-19T11:11:00;6.87;;;6.27;;
3777;SDS011;1904;50.076;8.660;2022-08-19T11:13:34;8.10;;;6.60;;
3777;SDS011;1904;50.076;8.660;2022-08-19T11:16:04;13.17;;;6.93;;
3777;SDS011;1904;50.076;8.660;2022-08-19T11:18:40;7.33;;;6.63;;
3777;SDS011;1904;50.076;8.660;2022-08-19T11:21:09;7.97;;;6.73;;
3777;SDS011;1904;50.076;8.660;2022-08-19T11:23:35;10.30;;;6.20;;
3777;SDS011;1904;50.076;8.660;2022-08-19T11:26:01;7.03;;;6.10;;
3777;SDS011;1904;50.076;8.660;2022-08-19T11:28:27;7.80;;;6.90;;
3777;SDS011;1904;50.076;8.660;2022-08-19T11:30:53;9.33;;;6.50;;
3777;SDS011;1904;50.076;8.660;2022-08-19T11:33:19;9.70;;;7.17;;
3777;SDS011;1904;50.076;8.660;2022-08-19T11:35:44;7.87;;;7.10;;
3777;SDS011;1904;50.076;8.660;2022-08-19T11:38:10;7.77;;;6.70;;
3777;SDS011;1904;50.076;8.660;2022-08-19T11:40:39;8.40;;;7.27;;
3777;SDS011;1904;50.076;8.660;2022-08-19T11:43:05;13.73;;;7.50;;
3777;SDS011;1904;50.076;8.660;2022-08-19T11:45:31;8.03;;;7.23;;
3777;SDS011;1904;50.076;8.660;2022-08-19T11:47:57;6.93;;;6.33;;
3777;SDS011;1904;50.076;8.660;2022-08-19T11:50:23;12.30;;;6.83;;
3777;SDS011;1904;50.076;8.660;2022-08-19T11:52:49;10.37;;;7.00;;
3777;SDS011;1904;50.076;8.660;2022-08-19T11:55:16;9.17;;;7.13;;
3777;SDS011;1904;50.076;8.660;2022-08-19T11:57:42;9.10;;;8.27;;
3777;SDS011;1904;50.076;8.660;2022-08-19T12:00:09;8.70;;;7.80;;
3777;SDS011;1904;50.076;8.660;2022-08-19T12:02:37;7.63;;;6.90;;
3777;SDS011;1904;50.076;8.660;2022-08-19T12:08:03;26.87;;;7.43;;
3777;SDS011;1904;50.076;8.660;2022-08-19T12:10:29;15.40;;;7.40;;
3777;SDS011;1904;50.076;8.660;2022-08-19T12:13:03;8.13;;;7.43;;
3777;SDS011;1904;50.076;8.660;2022-08-19T12:15:28;7.40;;;6.80;;
3777;SDS011;1904;50.076;8.660;2022-08-19T12:17:56;8.50;;;7.60;;
3777;SDS011;1904;50.076;8.660;2022-08-19T12:20:23;8.57;;;7.77;;
3777;SDS011;1904;50.076;8.660;2022-08-19T12:23:03;11.23;;;7.70;;
3777;SDS011;1904;50.076;8.660;2022-08-19T12:25:29;8.43;;;7.47;;
3777;SDS011;1904;50.076;8.660;2022-08-19T12:27:57;9.00;;;8.10;;
3777;SDS011;1904;50.076;8.660;2022-08-19T12:30:23;8.50;;;7.70;;
3777;SDS011;1904;50.076;8.660;2022-08-19T12:32:49;11.60;;;7.33;;
3777;SDS011;1904;50.076;8.660;2022-08-19T12:35:21;8.80;;;7.03;;
3777;SDS011;1904;50.076;8.660;2022-08-19T12:37:48;10.80;;;6.87;;
3777;SDS011;1904;50.076;8.660;2022-08-19T12:40:15;9.57;;;6.93;;
3777;SDS011;1904;50.076;8.660;2022-08-19T12:42:42;8.70;;;7.10;;
3777;SDS011;1904;50.076;8.660;2022-08-19T12:45:09;8.17;;;7.37;;
3777;SDS011;1904;50.076;8.660;2022-08-19T12:47:45;7.03;;;6.40;;
3777;SDS011;1904;50.076;8.660;2022-08-19T12:50:11;9.23;;;6.30;;
3777;SDS011;1904;50.076;8.660;2022-08-19T12:52:37;6.77;;;6.17;;
3777;SDS011;1904;50.076;8.660;2022-08-19T12:55:04;6.87;;;6.27;;
3777;SDS011;1904;50.076;8.660;2022-08-19T12:57:31;7.30;;;6.63;;
3777;SDS011;1904;50.076;8.660;2022-08-19T13:00:08;9.60;;;6.77;;
3777;SDS011;1904;50.076;8.660;2022-08-19T13:02:45;7.63;;;6.30;;
3777;SDS011;1904;50.076;8.660;2022-08-19T13:05:23;8.53;;;7.20;;
3777;SDS011;1904;50.076;8.660;2022-08-19T13:07:57;8.10;;;6.43;;
3777;SDS011;1904;50.076;8.660;2022-08-19T13:10:25;7.20;;;6.50;;
3777;SDS011;1904;50.076;8.660;2022-08-19T13:12:57;8.80;;;6.20;;
3777;SDS011;1904;50.076;8.660;2022-08-19T13:15:24;7.33;;;6.50;;
3777;SDS011;1904;50.076;8.660;2022-08-19T13:17:51;7.13;;;6.43;;
3777;SDS011;1904;50.076;8.660;2022-08-19T13:20:19;6.10;;;5.50;;
3777;SDS011;1904;50.076;8.660;2022-08-19T13:22:45;5.80;;;5.30;;
3777;SDS011;1904;50.076;8.660;2022-08-19T13:25:12;5.70;;;5.20;;
3777;SDS011;1904;50.076;8.660;2022-08-19T13:27:39;5.20;;;4.80;;
3777;SDS011;1904;50.076;8.660;2022-08-19T13:30:07;6.10;;;5.40;;
3777;SDS011;1904;50.076;8.660;2022-08-19T13:32:52;6.10;;;5.20;;
3777;SDS011;1904;50.076;8.660;2022-08-19T13:35:47;5.20;;;4.80;;
3777;SDS011;1904;50.076;8.660;2022-08-19T13:38:16;5.40;;;4.90;;
3777;SDS011;1904;50.076;8.660;2022-08-19T13:40:45;5.33;;;4.87;;
3777;SDS011;1904;50.076;8.660;2022-08-19T13:43:12;5.20;;;4.70;;
3777;SDS011;1904;50.076;8.660;2022-08-19T13:45:39;5.27;;;4.70;;
3777;SDS011;1904;50.076;8.660;2022-08-19T13:48:05;5.23;;;4.50;;
3777;SDS011;1904;50.076;8.660;2022-08-19T13:50:33;6.40;;;4.23;;
3777;SDS011;1904;50.076;8.660;2022-08-19T13:53:03;4.57;;;4.17;;
3777;SDS011;1904;50.076;8.660;2022-08-19T13:55:40;4.37;;;4.03;;
3777;SDS011;1904;50.076;8.660;2022-08-19T13:58:07;4.83;;;4.40;;
3777;SDS011;1904;50.076;8.660;2022-08-19T14:00:35;4.57;;;4.17;;
3777;SDS011;1904;50.076;8.660;2022-08-19T14:03:04;4.33;;;3.90;;
3777;SDS011;1904;50.076;8.660;2022-08-19T14:05:33;3.80;;;3.50;;
3777;SDS011;1904;50.076;8.660;2022-08-19T14:07:59;3.93;;;3.40;;
3777;SDS011;1904;50.076;8.660;2022-08-19T14:10:33;4.17;;;3.83;;
3777;SDS011;1904;50.076;8.660;2022-08-19T14:13:03;4.50;;;3.57;;
3777;SDS011;1904;50.076;8.660;2022-08-19T14:15:33;4.17;;;3.80;;
3777;SDS011;1904;50.076;8.660;2022-08-19T14:18:03;5.03;;;3.27;;
3777;SDS011;1904;50.076;8.660;2022-08-19T14:20:34;4.60;;;3.67;;
3777;SDS011;1904;50.076;8.660;2022-08-19T14:23:09;4.23;;;3.43;;
3777;SDS011;1904;50.076;8.660;2022-08-19T14:25:39;3.70;;;3.50;;
3777;SDS011;1904;50.076;8.660;2022-08-19T14:28:21;3.93;;;3.63;;
3777;SDS011;1904;50.076;8.660;2022-08-19T14:30:51;4.30;;;3.90;;
3777;SDS011;1904;50.076;8.660;2022-08-19T14:33:27;5.40;;;3.30;;
3777;SDS011;1904;50.076;8.660;2022-08-19T14:35:57;3.80;;;3.60;;
3777;SDS011;1904;50.076;8.660;2022-08-19T14:38:27;9.63;;;3.20;;
3777;SDS011;1904;50.076;8.660;2022-08-19T14:41:04;3.53;;;3.23;;
3777;SDS011;1904;50.076;8.660;2022-08-19T14:46:40;8.13;;;3.30;;
3777;SDS011;1904;50.076;8.660;2022-08-19T14:49:15;13.47;;;3.03;;
3777;SDS011;1904;50.076;8.660;2022-08-19T14:51:43;6.10;;;3.37;;
3777;SDS011;1904;50.076;8.660;2022-08-19T14:54:10;3.40;;;3.10;;
3777;SDS011;1904;50.076;8.660;2022-08-19T14:56:39;4.80;;;3.07;;
3777;SDS011;1904;50.076;8.660;2022-08-19T14:59:05;3.80;;;3.60;;
3777;SDS011;1904;50.076;8.660;2022-08-19T15:01:39;3.53;;;3.23;;
3777;SDS011;1904;50.076;8.660;2022-08-19T15:04:05;3.80;;;3.50;;
3777;SDS011;1904;50.076;8.660;2022-08-19T15:06:31;4.00;;;3.60;;
3777;SDS011;1904;50.076;8.660;2022-08-19T15:09:15;5.43;;;3.40;;
3777;SDS011;1904;50.076;8.660;2022-08-19T15:11:40;3.43;;;3.20;;
3777;SDS011;1904;50.076;8.660;2022-08-19T15:14:09;5.30;;;3.43;;
3777;SDS011;1904;50.076;8.660;2022-08-19T15:16:35;3.40;;;3.20;;
3777;SDS011;1904;50.076;8.660;2022-08-19T15:19:06;6.33;;;2.83;;
3777;SDS011;1904;50.076;8.660;2022-08-19T15:21:33;3.20;;;3.00;;
3777;SDS011;1904;50.076;8.660;2022-08-19T15:23:59;3.93;;;2.90;;
3777;SDS011;1904;50.076;8.660;2022-08-19T15:26:26;3.90;;;2.97;;
3777;SDS011;1904;50.076;8.660;2022-08-19T15:28:56;4.50;;;3.00;;
3777;SDS011;1904;50.076;8.660;2022-08-19T15:31:22;2.53;;;2.43;;
3777;SDS011;1904;50.076;8.660;2022-08-19T15:34:03;4.33;;;2.57;;
3777;SDS011;1904;50.076;8.660;2022-08-19T15:36:39;6.17;;;3.30;;
3777;SDS011;1904;50.076;8.660;2022-08-19T15:39:05;3.60;;;2.77;;
3777;SDS011;1904;50.076;8.660;2022-08-19T15:41:31;5.03;;;3.20;;
3777;SDS011;1904;50.076;8.660;2022-08-19T15:44:10;7.10;;;2.80;;
3777;SDS011;1904;50.076;8.660;2022-08-19T15:46:40;3.03;;;2.83;;
3777;SDS011;1904;50.076;8.660;2022-08-19T15:49:10;16.47;;;3.20;;
3777;SDS011;1904;50.076;8.660;2022-08-19T15:51:38;9.67;;;2.77;;
3777;SDS011;1904;50.076;8.660;2022-08-19T15:54:08;2.77;;;2.63;;
3777;SDS011;1904;50.076;8.660;2022-08-19T15:56:36;3.47;;;2.30;;
3777;SDS011;1904;50.076;8.660;2022-08-19T15:59:21;2.20;;;2.10;;
3777;SDS011;1904;50.076;8.660;2022-08-19T16:02:09;2.10;;;2.00;;
3777;SDS011;1904;50.076;8.660;2022-08-19T16:04:53;5.50;;;2.30;;
3777;SDS011;1904;50.076;8.660;2022-08-19T16:07:37;2.37;;;2.27;;
3777;SDS011;1904;50.076;8.660;2022-08-19T16:10:03;2.67;;;2.47;;
3777;SDS011;1904;50.076;8.660;2022-08-19T16:12:30;2.40;;;2.20;;
3777;SDS011;1904;50.076;8.660;2022-08-19T16:14:56;2.30;;;2.20;;
3777;SDS011;1904;50.076;8.660;2022-08-19T16:17:22;2.93;;;2.20;;
3777;SDS011;1904;50.076;8.660;2022-08-19T16:19:51;4.40;;;2.43;;
3777;SDS011;1904;50.076;8.660;2022-08-19T16:22:26;3.90;;;1.77;;
3777;SDS011;1904;50.076;8.660;2022-08-19T16:25:03;2.20;;;2.10;;
3777;SDS011;1904;50.076;8.660;2022-08-19T16:30:18;2.33;;;2.23;;
3777;SDS011;1904;50.076;8.660;2022-08-19T16:32:51;4.30;;;2.43;;
3777;SDS011;1904;50.076;8.660;2022-08-19T16:35:17;2.53;;;2.20;;
3777;SDS011;1904;50.076;8.660;2022-08-19T16:37:45;3.10;;;2.90;;
3777;SDS011;1904;50.076;8.660;2022-08-19T16:43:21;3.13;;;2.80;;
3777;SDS011;1904;50.076;8.660;2022-08-19T16:46:03;3.20;;;2.70;;
3777;SDS011;1904;50.076;8.660;2022-08-19T16:48:33;3.30;;;2.90;;
3777;SDS011;1904;50.076;8.660;2022-08-19T17:03:51;3.30;;;2.83;;
3777;SDS011;1904;50.076;8.660;2022-08-19T17:06:20;7.23;;;3.10;;
3777;SDS011;1904;50.076;8.660;2022-08-19T17:09:04;3.67;;;3.47;;
3777;SDS011;1904;50.076;8.660;2022-08-19T17:11:31;3.77;;;3.47;;
3777;SDS011;1904;50.076;8.660;2022-08-19T17:13:59;3.57;;;3.30;;
3777;SDS011;1904;50.076;8.660;2022-08-19T17:16:28;3.27;;;3.07;;
3777;SDS011;1904;50.076;8.660;2022-08-19T17:22:21;4.17;;;3.43;;